Huntsville, Ohio
Current Conditions -  °F | °C
As of 1:10 PM on Wednesday 28 Jan 2015 (Local Time) from KEDJ Reporting Station
Clear Clear  
Wind Chill: 14°   Ceiling: Unl
Heat Index: 23°   Visibility: 10mi
Dew Point: 14°   Wind: 8mph
Humidity: 68%   Direction: 180°S
Pressure: 30.31"   Gusts: NA
Location:  40.44°N, 83.8°W
Report Text: KEDJ 281810Z AUTO 18007KT 10SM CLR M05/M10 A3031 RMK AO1
Loading
Personal Weather Stations






























Interactive Weather Map New forecast layout! Learn more

10-Day Weather Forecast

Advertisements
Track Severe Weather on mobile